Sevenpersons, Canada
Current Conditions -  °F | °C
As of 10:00 AM on Friday 21 Nov 2014 (Local Time) from CYXH Reporting Station
Few Clouds Few Clouds  
Wind Chill: 33°   Ceiling: Unl
Heat Index: 37°   Visibility: 30mi
Dew Point: 30°   Wind: 6mph
Humidity: 75%   Direction: 180°S
Pressure: 29.62"   Gusts: NA
Location:  49.87°N, 110.9°W
Report Text: CYXH 211700Z 18005KT 170V230 30SM FEW250 03/M01 A2962 RMK CI2 SLP050
Loading
Personal Weather Stations






























Interactive Weather Map New forecast layout! Learn more

10-Day Weather Forecast

Advertisements
Track Severe Weather on mobile